Athens, LA

6:04 AM CDT on August 28, 2014 (GMT -0500)
Minden | Change Station
CLOSE
Current Station
Airport
Location: Minden,
Elevation: 279 ft
Nearby Weather Stations

Elev 279 ft 32.65 °N, 93.30 °W | Updated 10 minutes ago

Partly Cloudy
Partly Cloudy
72 °F
Feels Like 72 °F
N
4
Wind Variable Wind from ESE
Gusts 3 mph

Today
High -- | Low -- °F
--% Chance of Precip.
Yesterday
High -- | Low -- °F
Precip. -- in
6:44 AM 7:41 PM
Waxing Crescent, 7% visible
Pressure 29.99 in
Visibility 10.0 miles
Clouds
Dew Point 66 °F
Humidity 83%
Rainfall 0.00 in
Snow Depth Not available.
UV Not available.
Pollen 9.20 out of 12
Air Quality Not available.
Flu Activity Not available.
METAR KMNE 281054Z AUTO 11003KT 10SM 22/19 A2999 RMK AO2

More Conditions Fewer Conditions

Pressure 29.99 in
Visibility 10.0 miles
Clouds
Dew Point 66 °F
Humidity 83%
Rainfall 0.00 in
Snow Depth Not available.
UV Not available.
Pollen 9.20 out of 12
Air Quality Not available.
Flu Activity Not available.
METAR KMNE 281054Z AUTO 11003KT 10SM 22/19 A2999 RMK AO2

More Conditions Fewer Conditions

10-Day Weather Forecast

Almanac

Astronomy

Aug. 28, 2014 Rise Set
Actual Time 6:44 AM CDT 7:41 PM CDT
Civil Twilight 6:18 AM CDT 8:06 PM CDT
Nautical Twilight 5:48 AM CDT 8:36 PM CDT
Astronomical Twilight 5:17 AM CDT 9:07 PM CDT
Moon 9:25 AM CDT 9:18 PM CDT
Length of Visible Light 13h 48m
Length of Day
12h 57m
Tomorrow will be 1m 55s shorter.
Waxing Crescent, 7% of the Moon is Illuminated
Today
Waxing Crescent
Sep 2
First Quarter
Sep 8
Full
Sep 15
Last Quarter
Sep 24
New

Today's Extremes

State Highs State Lows

Community

WunderPhotos

Upload Photos

1,747,923 photos uploaded!

Nearby

Snow Depth

Station Depth Elevation
No new snow has been reported.

Earthquake Activity

City Distance Mag. Time & Date
No recent earthquake activity has been reported nearby.
Minimum magnitude displayed is 2.5.

Coastal Water Temperatures

Place Temperature
No Stations Reporting

Nearby Weather Stations